Terminal Aerodrome Forecast
Issued by NWS Twin Cities, MN

Home | Current Version | Previous Version | Text Only | Print | Product List | Glossary Off
Versions: 1 2 3 4 5 6 7 8 9 10 11 12 13 14

849
FTUS43 KMPX 171737
TAFEAU
TAF
KEAU 171737Z 1718/1818 28008KT P6SM FEW025
     FM180000 30005KT P6SM FEW130
     FM180500 00000KT P6SM BKN140
     FM181700 12006KT P6SM OVC100=

USA.gov is the U.S. government's official web portal to all federal, state and local government web resources and services.